Terminal Aerodrome Forecast
Issued by NWS

Home | Current Version | Previous Version | Text Only | Print | Product List | Glossary On
Versions: 1 2 3 4 5 6 7 8 9 10 11 12 13 14 15 16 17 18 19 20 21 22 23
512
FTUS43 KGRR 060224 AAA
TAFLAN
TAF AMD
KLAN 060224Z 0602/0624 27008KT P6SM BKN120
     FM060600 24007KT P6SM SCT030 OVC100
     FM061400 23011KT P6SM -SN OVC030=

USA.gov is the U.S. government's official web portal to all federal, state and local government web resources and services.